• Join FlightAware (Why Join?)
  • Login
  • US Flag 
07:34PM EDT


 

Airport Tracker/Info


-or-


 

Live Flight TrackerFlight Track Log ✈ N143DE ✈ 28-Jun-2013 ✈ KATL - KTLH

Flight Track Log - Related Links

Times and Time Zones

All times are in EDT time to prevent confusion due to time zone crossing. See the N143DE flight status page for this flight to view local times or setup timezone preferences in your user account.

Time Position Orientation Groundspeed Altitude Reporting Facility
EDT Latitude Longitude Course Direction KTS MPH feet Rate Location/Type
01:44AM 33.6431 -84.5153 260° West 213 245 4,200  Level Atlanta Center
01:45AM 33.5889 -84.5100 175° South 140 161 5,800 1,440 Climbing Atlanta Center
01:46AM 33.5325 -84.5022 173° South 199 229 7,100 1,320 Climbing Atlanta Center
01:47AM 33.4761 -84.4944 173° South 199 229 8,500 1,380 Climbing Atlanta Center
01:48AM 33.4197 -84.4892 176° South 204 235 9,900 1,320 Climbing Atlanta Center
01:49AM 33.3614 -84.4889 180° South 204 235 11,200 1,380 Climbing Atlanta Center
01:50AM 33.3008 -84.4911 182° South 210 242 12,700 1,500 Climbing Atlanta Center
01:51AM 33.2486 -84.4958 184° South 205 236 14,200 1,320 Climbing Atlanta Center
01:52AM 33.1986 -84.5006 185° South 194 223 15,400 1,140 Climbing Atlanta Center
01:53AM 33.1464 -84.5053 184° South 194 223 16,500 1,140 Climbing Atlanta Center
01:54AM 33.0961 -84.5150 189° South 194 223 17,700 960 Climbing Atlanta Center
01:55AM 33.0439 -84.5244 189° South 194 223 18,500 600 Climbing Atlanta Center
01:56AM 32.9875 -84.5342 188° South 208 239 19,000 300 Climbing Atlanta Center
01:57AM 32.9208 -84.5461 189° South 231 266 19,100  Climbing Atlanta Center
01:58AM 32.8497 -84.5433 178° South 251 289 19,100  Level Atlanta Center
01:59AM 32.7725 -84.5378 177° South 270 311 19,100 -60 Level Atlanta Center
02:00AM 32.6975 -84.5300 175° South 270 311 19,000 -60 Descending Atlanta Center
02:01AM 32.6264 -84.5197 173° South 270 311 19,000  Level Atlanta Center
02:02AM 32.5492 -84.5169 178° South 270 311 19,100  Climbing Atlanta Center
02:03AM 32.4761 -84.5117 177° South 275 316 19,000 -60 Descending Atlanta Center
02:04AM 32.4033 -84.5064 176° South 275 316 19,000  Level Atlanta Center
02:05AM 32.3261 -84.5008 177° South 270 311 19,100  Climbing Atlanta Center
02:06AM 32.2508 -84.4956 177° South 270 311 19,000 -60 Descending Atlanta Center
02:08AM 32.0836 -84.4742 174° South 272 313 19,000  Level Jacksonville Center
02:09AM 32.0106 -84.4728 179° South 267 307 19,000  Level Jacksonville Center
02:10AM 31.9375 -84.4692 178° South 267 307 19,000  Level Jacksonville Center
02:11AM 31.8644 -84.4606 174° South 267 307 19,000  Level Jacksonville Center
02:12AM 31.7936 -84.4544 176° South 267 307 19,000 -540 Level Jacksonville Center
02:14AM 31.7209 -84.4449 174° South  Level FlightAware Approximate
02:14AM 31.6414 -84.4444 174° South 274 315 17,400  Level Jacksonville Center
02:15AM 31.5664 -84.4264 168° South 274 315 16,300 -1,140 Descending Jacksonville Center
02:16AM 31.4936 -84.4031 165° South 274 315 15,200 -1,140 Descending Jacksonville Center
02:17AM 31.4189 -84.3753 162° South 279 321 14,100 -1,080 Descending Jacksonville Center
02:18AM 31.3481 -84.3522 186° South 279 321 13,100 -960 Descending Jacksonville Center
02:19AM 31.3461 -84.3835 186° South  Level FlightAware Approximate
02:19AM 31.2814 -84.3269 162° South 272 313 12,200  Level Jacksonville Center
02:20AM 31.2150 -84.3039 163° South 259 298 11,200 -1,080 Descending Jacksonville Center
02:21AM 31.1464 -84.2836 166° South 259 298 10,100 -1,200 Descending Jacksonville Center
02:22AM 31.0797 -84.2606 164° South 259 298 8,900 -1,200 Descending Jacksonville Center
02:23AM 31.0089 -84.2403 166° South 259 298 7,800 -960 Descending Jacksonville Center
02:24AM 30.9422 -84.2200 165° South 259 298 7,000 -960 Descending Jacksonville Center
02:25AM 30.8736 -84.2069 171° South 259 298 5,900 -960 Descending Jacksonville Center
02:26AM 30.8067 -84.2036 178° South 254 292 5,100 -780 Descending Jacksonville Center
02:27AM 30.7442 -84.1931 172° South 244 281 4,400 -720 Descending Jacksonville Center
02:28AM 30.6839 -84.1872 175° South 234 269 3,700 -720 Descending Jacksonville Center
02:29AM 30.6253 -84.1842 177° South 224 258 3,000 -360 Descending Jacksonville Center
02:30AM 30.5689 -84.1931 188° South 219 252 3,000  Level Jacksonville Center
02:31AM 30.5122 -84.2092 194° South 206 237 3,000  Level Jacksonville Center
02:32AM 30.4600 -84.2206 191° South 200 230 3,000 -240 Level Jacksonville Center
02:33AM 30.4119 -84.2342 194° South 195 224 2,600 -420 Descending Jacksonville Center